createdAt,value
2023-04-18T00:00:28.723Z,12.30
2023-04-18T00:02:55.664Z,12.28
2023-04-18T00:05:22.676Z,12.28
2023-04-18T00:07:49.681Z,12.26
2023-04-18T00:10:16.928Z,12.23
2023-04-18T00:12:43.531Z,12.21
2023-04-18T00:15:11.560Z,12.20
2023-04-18T00:17:41.407Z,12.17
2023-04-18T00:20:12.786Z,12.16
2023-04-18T00:22:43.029Z,12.15
2023-04-18T00:25:10.567Z,12.14
2023-04-18T00:27:38.576Z,12.12
2023-04-18T00:30:06.377Z,12.10
2023-04-18T00:32:33.119Z,12.08
2023-04-18T00:34:59.776Z,12.08
2023-04-18T00:37:26.388Z,12.05
2023-04-18T00:39:54.038Z,12.04
2023-04-18T00:42:21.974Z,12.04
2023-04-18T00:44:49.034Z,12.02
2023-04-18T00:47:17.548Z,12.01
2023-04-18T00:49:45.230Z,11.98
2023-04-18T00:52:13.051Z,11.93
2023-04-18T00:54:41.121Z,11.87
2023-04-18T00:57:08.016Z,11.89
2023-04-18T00:59:35.652Z,11.90
2023-04-18T01:02:03.915Z,11.88
2023-04-18T01:04:32.606Z,11.88
2023-04-18T01:07:01.020Z,11.87
2023-04-18T01:09:28.180Z,11.90
2023-04-18T01:11:54.776Z,11.87
2023-04-18T01:14:21.731Z,11.84
2023-04-18T01:16:51.293Z,11.80
2023-04-18T01:19:17.838Z,11.78
2023-04-18T01:21:44.541Z,11.77
2023-04-18T01:24:16.732Z,11.71
2023-04-18T01:26:45.234Z,11.72
2023-04-18T01:29:12.033Z,11.71
2023-04-18T01:31:40.037Z,11.71
2023-04-18T01:34:07.399Z,11.72
2023-04-18T01:36:34.951Z,11.73
2023-04-18T01:39:01.621Z,11.75
2023-04-18T01:41:29.821Z,11.74
2023-04-18T01:43:56.376Z,11.75
2023-04-18T01:46:23.016Z,11.76
2023-04-18T01:48:49.688Z,11.78
2023-04-18T01:51:16.260Z,11.79
2023-04-18T01:53:42.811Z,11.79
2023-04-18T01:56:10.237Z,11.77
2023-04-18T01:58:37.559Z,11.77
2023-04-18T02:01:04.372Z,11.75
2023-04-18T02:03:31.217Z,11.75
2023-04-18T02:05:57.940Z,11.72
2023-04-18T02:08:24.668Z,11.68
2023-04-18T02:10:51.306Z,11.65
2023-04-18T02:13:18.070Z,11.61
2023-04-18T02:15:48.829Z,11.61
2023-04-18T02:18:17.393Z,11.62
2023-04-18T02:20:44.363Z,11.63
2023-04-18T02:23:11.234Z,11.60
2023-04-18T02:25:37.808Z,11.60
2023-04-18T02:28:04.500Z,11.61
2023-04-18T02:30:31.391Z,11.61
2023-04-18T02:32:58.050Z,11.59
2023-04-18T02:35:26.137Z,11.58
2023-04-18T02:37:52.670Z,11.56
2023-04-18T02:40:19.656Z,11.57
2023-04-18T02:42:46.440Z,11.58
2023-04-18T02:45:13.020Z,11.59
2023-04-18T02:47:47.413Z,11.59
2023-04-18T02:50:21.574Z,11.61
2023-04-18T02:52:48.152Z,11.63
2023-04-18T02:55:14.910Z,11.63
2023-04-18T02:57:41.513Z,11.61
2023-04-18T03:00:08.937Z,11.59
2023-04-18T03:02:35.756Z,11.56
2023-04-18T03:05:02.478Z,11.54
2023-04-18T03:07:30.860Z,11.53
2023-04-18T03:09:57.678Z,11.50
2023-04-18T03:12:24.280Z,11.47
2023-04-18T03:14:50.941Z,11.43
2023-04-18T03:17:18.232Z,11.44
2023-04-18T03:19:46.483Z,11.46
2023-04-18T03:22:14.238Z,11.45
2023-04-18T03:24:42.008Z,11.47
2023-04-18T03:27:08.572Z,11.48
2023-04-18T03:29:35.295Z,11.47
2023-04-18T03:32:01.967Z,11.45
2023-04-18T03:34:29.852Z,11.44
2023-04-18T03:36:56.725Z,11.41
2023-04-18T03:39:23.263Z,11.42
2023-04-18T03:41:49.934Z,11.35
2023-04-18T03:44:16.769Z,11.35
2023-04-18T03:46:44.028Z,11.37
2023-04-18T03:49:10.703Z,11.38
2023-04-18T03:51:44.177Z,11.37
2023-04-18T03:54:10.859Z,11.34
2023-04-18T03:56:37.534Z,11.31
2023-04-18T03:59:04.146Z,11.28
2023-04-18T04:01:30.794Z,11.27
2023-04-18T04:03:57.602Z,11.27
2023-04-18T04:06:24.476Z,11.29
2023-04-18T04:08:51.127Z,11.29
2023-04-18T04:11:17.695Z,11.28
2023-04-18T04:13:44.315Z,11.28
2023-04-18T04:16:11.122Z,11.30
2023-04-18T04:18:37.685Z,11.30
2023-04-18T04:21:05.907Z,11.27
2023-04-18T04:23:33.220Z,11.24
2023-04-18T04:26:03.721Z,11.24
2023-04-18T04:28:31.059Z,11.23
2023-04-18T04:30:57.942Z,11.25
2023-04-18T04:33:28.710Z,11.25
2023-04-18T04:35:56.495Z,11.25
2023-04-18T04:38:23.124Z,11.27
2023-04-18T04:40:49.834Z,11.27
2023-04-18T04:43:16.929Z,11.27
2023-04-18T04:45:44.549Z,11.26
2023-04-18T04:48:11.442Z,11.29
2023-04-18T04:50:40.552Z,11.30
2023-04-18T04:53:11.775Z,11.31
2023-04-18T04:55:38.841Z,11.30
2023-04-18T04:58:05.465Z,11.32
2023-04-18T05:00:32.069Z,11.32
2023-04-18T05:02:58.939Z,11.32
2023-04-18T05:05:25.606Z,11.33
2023-04-18T05:07:52.213Z,11.34
2023-04-18T05:10:18.758Z,11.36
2023-04-18T05:12:45.408Z,11.37
2023-04-18T05:15:12.593Z,11.38
2023-04-18T05:17:39.206Z,11.38
2023-04-18T05:20:06.520Z,11.36
2023-04-18T05:22:33.145Z,11.36
2023-04-18T05:24:59.763Z,11.35
2023-04-18T05:27:26.599Z,11.34
2023-04-18T05:29:53.315Z,11.36
2023-04-18T05:32:20.025Z,11.35
2023-04-18T05:34:46.913Z,11.40
2023-04-18T05:37:13.667Z,11.44
2023-04-18T05:39:42.358Z,11.45
2023-04-18T05:42:09.129Z,11.48
2023-04-18T05:44:35.839Z,11.52
2023-04-18T05:47:05.740Z,11.59
2023-04-18T05:49:32.715Z,11.68
2023-04-18T05:51:59.587Z,11.76
2023-04-18T05:54:26.181Z,11.87
2023-04-18T05:56:52.870Z,11.95
2023-04-18T05:59:20.644Z,11.98
2023-04-18T06:01:47.459Z,12.04
2023-04-18T06:04:14.357Z,12.11
2023-04-18T06:06:42.023Z,12.16
2023-04-18T06:09:08.805Z,12.24
2023-04-18T06:11:35.825Z,12.31
2023-04-18T06:14:03.170Z,12.39
2023-04-18T06:16:29.832Z,12.46
2023-04-18T06:19:00.850Z,12.51
2023-04-18T06:21:27.910Z,12.57
2023-04-18T06:23:54.670Z,12.67
2023-04-18T06:26:21.551Z,12.71
2023-04-18T06:28:48.246Z,12.77
2023-04-18T06:31:14.953Z,12.83
2023-04-18T06:33:41.563Z,12.90
2023-04-18T06:36:09.005Z,12.94
2023-04-18T06:38:35.740Z,13.02
2023-04-18T06:41:02.307Z,13.05
2023-04-18T06:43:28.889Z,13.12
2023-04-18T06:45:56.700Z,13.20
2023-04-18T06:48:23.389Z,13.33
2023-04-18T06:50:50.642Z,13.41
2023-04-18T06:53:17.766Z,13.57
2023-04-18T06:55:44.449Z,13.76
2023-04-18T06:58:13.669Z,13.96
2023-04-18T07:00:40.371Z,14.18
2023-04-18T07:03:11.308Z,14.38
2023-04-18T07:05:39.615Z,14.56
2023-04-18T07:08:06.272Z,14.62
2023-04-18T07:10:32.865Z,14.74
2023-04-18T07:12:59.575Z,14.83
2023-04-18T07:15:26.146Z,14.85
2023-04-18T07:17:53.016Z,14.86
2023-04-18T07:20:19.667Z,14.92
2023-04-18T07:22:48.035Z,14.97
2023-04-18T07:25:14.758Z,15.01
2023-04-18T07:27:41.456Z,15.01
2023-04-18T07:30:08.922Z,15.01
2023-04-18T07:32:35.515Z,15.01
2023-04-18T07:35:03.390Z,14.95
2023-04-18T07:37:30.015Z,15.02
2023-04-18T07:39:56.619Z,15.09
2023-04-18T07:42:23.203Z,15.12
2023-04-18T07:44:49.868Z,15.23
2023-04-18T07:47:17.157Z,15.30
2023-04-18T07:49:43.721Z,15.38
2023-04-18T07:52:10.366Z,15.45
2023-04-18T07:54:36.898Z,15.55
2023-04-18T07:57:03.562Z,15.61
2023-04-18T07:59:32.118Z,15.71
2023-04-18T08:01:58.809Z,15.82
2023-04-18T08:04:27.620Z,15.84
2023-04-18T08:06:58.705Z,15.91
2023-04-18T08:09:25.323Z,15.85
2023-04-18T08:11:51.960Z,15.88
2023-04-18T08:14:18.539Z,16.03
2023-04-18T08:16:45.181Z,16.27
2023-04-18T08:19:11.906Z,16.58
2023-04-18T08:21:39.331Z,16.82
2023-04-18T08:24:06.193Z,17.11
2023-04-18T08:26:32.773Z,17.16
2023-04-18T08:28:59.401Z,17.15
2023-04-18T08:31:26.497Z,17.01
2023-04-18T08:33:53.213Z,16.94
2023-04-18T08:36:19.898Z,16.89
2023-04-18T08:38:46.769Z,17.00
2023-04-18T08:41:14.262Z,17.07
2023-04-18T08:43:40.842Z,17.10
2023-04-18T08:46:07.958Z,17.08
2023-04-18T08:48:34.622Z,16.97
2023-04-18T08:51:02.116Z,16.97
2023-04-18T08:53:29.112Z,16.96
2023-04-18T08:55:57.210Z,16.99
2023-04-18T08:58:27.053Z,17.01
2023-04-18T09:00:54.679Z,17.09
2023-04-18T09:03:41.570Z,17.19
2023-04-18T09:06:12.500Z,17.38
2023-04-18T09:08:41.687Z,17.62
2023-04-18T09:11:31.886Z,17.85
2023-04-18T09:14:10.617Z,18.07
2023-04-18T09:16:50.857Z,18.38
2023-04-18T09:19:21.713Z,18.70
2023-04-18T09:21:58.327Z,18.90
2023-04-18T09:24:26.945Z,19.12
2023-04-18T09:26:55.869Z,19.18
2023-04-18T09:29:43.452Z,19.12
2023-04-18T09:32:10.081Z,19.22
2023-04-18T09:34:42.483Z,19.25
2023-04-18T09:37:10.298Z,19.25
2023-04-18T09:39:44.942Z,19.26
2023-04-18T09:42:12.119Z,19.36
2023-04-18T09:44:39.525Z,19.56
2023-04-18T09:47:07.930Z,19.89
2023-04-18T09:49:35.188Z,20.01
2023-04-18T09:52:07.213Z,20.05
2023-04-18T09:54:38.566Z,20.11
2023-04-18T09:57:15.642Z,20.12
2023-04-18T09:59:51.872Z,20.15
2023-04-18T10:02:22.164Z,20.30
2023-04-18T10:04:54.316Z,20.28
2023-04-18T10:07:21.091Z,20.26
2023-04-18T10:09:49.112Z,20.18
2023-04-18T10:12:17.944Z,20.27
2023-04-18T10:14:44.613Z,20.38
2023-04-18T10:17:11.862Z,20.44
2023-04-18T10:19:42.020Z,20.48
2023-04-18T10:22:08.788Z,20.56
2023-04-18T10:24:56.125Z,20.68
2023-04-18T10:27:49.021Z,20.59
2023-04-18T10:30:16.828Z,20.65
2023-04-18T10:32:43.572Z,20.66
2023-04-18T10:35:11.279Z,20.74
2023-04-18T10:37:59.837Z,20.81
2023-04-18T10:40:33.977Z,20.63
2023-04-18T10:43:01.031Z,20.60
2023-04-18T10:45:29.751Z,20.61
2023-04-18T10:48:25.593Z,20.69
2023-04-18T10:51:21.970Z,20.74
2023-04-18T10:53:52.827Z,20.89
2023-04-18T10:56:19.597Z,20.99
2023-04-18T10:58:51.166Z,21.16
2023-04-18T11:01:31.758Z,21.29
2023-04-18T11:03:59.596Z,21.26
2023-04-18T11:06:30.556Z,21.27
2023-04-18T11:09:13.936Z,21.19
2023-04-18T11:11:41.579Z,21.26
2023-04-18T11:14:08.680Z,21.35
2023-04-18T11:16:35.474Z,21.53
2023-04-18T11:19:19.861Z,21.72
2023-04-18T11:21:46.524Z,21.71
2023-04-18T11:24:21.739Z,21.89
2023-04-18T11:26:48.324Z,22.06
2023-04-18T11:29:18.009Z,22.05
2023-04-18T11:31:58.270Z,22.22
2023-04-18T11:34:30.656Z,22.08
2023-04-18T11:36:57.721Z,21.80
2023-04-18T11:39:24.503Z,21.68
2023-04-18T11:41:51.234Z,21.44
2023-04-18T11:44:22.952Z,21.35
2023-04-18T11:46:51.400Z,21.11
2023-04-18T11:49:31.981Z,20.99
2023-04-18T11:52:10.831Z,20.86
2023-04-18T11:54:44.958Z,20.72
2023-04-18T11:57:22.182Z,20.76
2023-04-18T11:59:59.699Z,20.79
2023-04-18T12:02:46.728Z,20.85
2023-04-18T12:05:29.102Z,20.84
2023-04-18T12:07:56.686Z,20.87
2023-04-18T12:10:24.762Z,20.78
2023-04-18T12:12:53.684Z,20.80
2023-04-18T12:15:23.428Z,20.44
2023-04-18T12:17:51.831Z,20.37
2023-04-18T12:20:18.542Z,20.46
2023-04-18T12:22:48.853Z,20.51
2023-04-18T12:25:26.677Z,20.72
2023-04-18T12:27:58.358Z,21.15
2023-04-18T12:30:34.146Z,21.44
2023-04-18T12:33:04.225Z,21.89
2023-04-18T12:35:31.979Z,22.43
2023-04-18T12:38:00.727Z,22.86
2023-04-18T12:40:27.692Z,23.11
2023-04-18T12:42:55.369Z,23.18
2023-04-18T12:45:23.379Z,23.10
2023-04-18T12:47:51.544Z,22.95
2023-04-18T12:50:23.426Z,22.77
2023-04-18T12:52:55.857Z,22.74
2023-04-18T12:55:25.985Z,22.49
2023-04-18T12:57:54.797Z,22.56
2023-04-18T13:00:23.558Z,22.41
2023-04-18T13:02:51.007Z,22.53
2023-04-18T13:05:19.234Z,22.51
2023-04-18T13:07:48.827Z,22.20
2023-04-18T13:10:20.430Z,21.90
2023-04-18T13:12:48.652Z,21.57
2023-04-18T13:15:16.144Z,21.46
2023-04-18T13:17:43.785Z,21.89
2023-04-18T13:20:12.471Z,21.73
2023-04-18T13:22:40.129Z,21.98
2023-04-18T13:25:08.321Z,22.91
2023-04-18T13:27:34.916Z,24.05
2023-04-18T13:30:01.517Z,25.01
2023-04-18T13:32:28.349Z,25.96
2023-04-18T13:34:56.145Z,26.74
2023-04-18T13:37:23.528Z,26.58
2023-04-18T13:39:50.214Z,25.79
2023-04-18T13:42:18.296Z,25.56
2023-04-18T13:44:46.277Z,25.26
2023-04-18T13:47:13.000Z,24.87
2023-04-18T13:49:39.635Z,24.87
2023-04-18T13:52:06.194Z,25.03
2023-04-18T13:54:33.105Z,25.36
2023-04-18T13:57:06.974Z,26.19
2023-04-18T13:59:33.415Z,26.91
2023-04-18T14:02:00.170Z,27.45
2023-04-18T14:04:27.410Z,27.24
2023-04-18T14:06:55.572Z,27.73
2023-04-18T14:09:22.232Z,28.51
2023-04-18T14:11:48.827Z,29.41
2023-04-18T14:14:15.479Z,30.04
2023-04-18T14:16:42.120Z,30.10
2023-04-18T14:19:08.726Z,30.58
2023-04-18T14:21:35.840Z,31.18
2023-04-18T14:24:02.439Z,30.66
2023-04-18T14:26:29.043Z,31.00
2023-04-18T14:28:55.666Z,30.99
2023-04-18T14:31:22.809Z,31.66
2023-04-18T14:33:49.465Z,31.85
2023-04-18T14:36:16.926Z,32.04
2023-04-18T14:38:48.326Z,32.16
2023-04-18T14:41:15.299Z,32.19
2023-04-18T14:43:42.069Z,32.47
2023-04-18T14:46:16.608Z,32.11
2023-04-18T14:48:47.263Z,31.88
2023-04-18T14:51:16.257Z,31.96
2023-04-18T14:53:43.593Z,32.24
2023-04-18T14:56:10.192Z,32.19
2023-04-18T14:58:38.143Z,32.38
2023-04-18T15:01:04.985Z,32.09
2023-04-18T15:03:31.920Z,32.43
2023-04-18T15:05:58.648Z,31.72
2023-04-18T15:08:25.471Z,31.53
2023-04-18T15:10:52.062Z,30.04
2023-04-18T15:13:18.661Z,29.88
2023-04-18T15:15:51.882Z,30.22
2023-04-18T15:18:18.465Z,31.03
2023-04-18T15:20:45.040Z,31.09
2023-04-18T15:23:13.832Z,31.12
2023-04-18T15:25:41.740Z,31.34
2023-04-18T15:28:08.490Z,32.19
2023-04-18T15:30:35.255Z,32.55
2023-04-18T15:33:02.474Z,32.97
2023-04-18T15:35:29.199Z,33.40
2023-04-18T15:37:56.613Z,33.31
2023-04-18T15:40:23.669Z,32.98
2023-04-18T15:42:50.998Z,32.73
2023-04-18T15:45:17.621Z,32.55
2023-04-18T15:47:44.281Z,32.37
2023-04-18T15:50:11.266Z,31.92
2023-04-18T15:52:38.368Z,31.26
2023-04-18T15:55:05.365Z,31.07
2023-04-18T15:57:32.355Z,31.21
2023-04-18T15:59:59.751Z,30.97
2023-04-18T16:02:26.836Z,30.61
2023-04-18T16:04:53.557Z,29.01
2023-04-18T16:07:20.138Z,28.44
2023-04-18T16:09:46.693Z,28.53
2023-04-18T16:12:13.304Z,27.36
2023-04-18T16:14:39.893Z,26.05
2023-04-18T16:17:06.485Z,25.48
2023-04-18T16:19:35.020Z,24.69
2023-04-18T16:22:02.943Z,24.18
2023-04-18T16:24:30.305Z,23.76
2023-04-18T16:26:56.961Z,23.67
2023-04-18T16:29:23.829Z,23.13
2023-04-18T16:31:51.751Z,22.79
2023-04-18T16:34:18.593Z,22.24
2023-04-18T16:36:45.137Z,21.64
2023-04-18T16:39:12.069Z,21.19
2023-04-18T16:41:38.705Z,21.15
2023-04-18T16:44:05.392Z,21.15
2023-04-18T16:46:32.429Z,21.06
2023-04-18T16:48:59.510Z,21.11
2023-04-18T16:51:26.917Z,20.50
2023-04-18T16:53:53.609Z,20.33
2023-04-18T16:56:20.240Z,20.20
2023-04-18T16:58:46.870Z,20.00
2023-04-18T17:01:13.473Z,19.83
2023-04-18T17:03:40.197Z,19.61
2023-04-18T17:06:06.936Z,19.41
2023-04-18T17:08:34.317Z,19.17
2023-04-18T17:11:02.244Z,19.22
2023-04-18T17:13:31.509Z,19.02
2023-04-18T17:15:58.351Z,18.75
2023-04-18T17:18:25.111Z,18.67
2023-04-18T17:20:52.641Z,18.57
2023-04-18T17:23:19.790Z,18.41
2023-04-18T17:25:46.348Z,18.19
2023-04-18T17:28:13.927Z,17.92
2023-04-18T17:30:41.974Z,17.58
2023-04-18T17:33:10.205Z,17.49
2023-04-18T17:35:37.162Z,17.48
2023-04-18T17:38:03.746Z,17.34
2023-04-18T17:40:30.424Z,17.23
2023-04-18T17:42:57.021Z,17.14
2023-04-18T17:45:24.277Z,16.97
2023-04-18T17:47:51.451Z,16.90
2023-04-18T17:50:18.129Z,16.91
2023-04-18T17:52:46.411Z,16.95
2023-04-18T17:55:13.223Z,16.87
2023-04-18T17:57:39.800Z,16.85
2023-04-18T18:00:10.484Z,16.67
2023-04-18T18:02:37.814Z,16.59
2023-04-18T18:05:05.677Z,16.50
2023-04-18T18:07:34.858Z,16.30
2023-04-18T18:10:02.533Z,16.17
2023-04-18T18:12:29.206Z,16.14
2023-04-18T18:14:57.305Z,16.04
2023-04-18T18:17:24.634Z,15.91
2023-04-18T18:19:51.224Z,15.76
2023-04-18T18:22:18.316Z,15.62
2023-04-18T18:24:45.567Z,15.51
2023-04-18T18:27:12.192Z,15.39
2023-04-18T18:29:38.767Z,15.14
2023-04-18T18:32:05.914Z,14.98
2023-04-18T18:34:32.454Z,14.86
2023-04-18T18:36:59.038Z,14.81
2023-04-18T18:39:25.577Z,14.78
2023-04-18T18:41:52.303Z,14.71
2023-04-18T18:44:18.868Z,14.60
2023-04-18T18:46:45.480Z,14.50
2023-04-18T18:49:12.429Z,14.39
2023-04-18T18:51:39.144Z,14.17
2023-04-18T18:54:05.749Z,13.93
2023-04-18T18:56:32.353Z,13.78
2023-04-18T18:58:58.945Z,13.80
2023-04-18T19:01:25.656Z,13.90
2023-04-18T19:03:52.452Z,14.01
2023-04-18T19:06:19.177Z,13.97
2023-04-18T19:08:45.767Z,13.93
2023-04-18T19:11:13.073Z,13.93
2023-04-18T19:13:39.740Z,13.83
2023-04-18T19:16:06.374Z,13.79
2023-04-18T19:18:33.276Z,13.68
2023-04-18T19:20:59.863Z,13.59
2023-04-18T19:23:27.795Z,13.56
2023-04-18T19:25:54.579Z,13.61
2023-04-18T19:28:22.603Z,13.66
2023-04-18T19:30:49.979Z,13.75
2023-04-18T19:33:17.362Z,13.82
2023-04-18T19:35:43.939Z,13.90
2023-04-18T19:38:10.508Z,13.94
2023-04-18T19:40:37.565Z,13.96
2023-04-18T19:43:04.147Z,13.98
2023-04-18T19:45:30.906Z,14.01
2023-04-18T19:47:57.597Z,14.03
2023-04-18T19:50:24.501Z,14.04
2023-04-18T19:52:51.176Z,14.06
2023-04-18T19:55:17.791Z,14.05
2023-04-18T19:57:44.454Z,14.04
2023-04-18T20:00:13.490Z,14.07
2023-04-18T20:02:41.257Z,14.07
2023-04-18T20:05:09.258Z,14.08
2023-04-18T20:07:36.152Z,14.13
2023-04-18T20:10:04.337Z,14.16
2023-04-18T20:12:31.300Z,14.13
2023-04-18T20:14:58.968Z,14.13
2023-04-18T20:17:26.201Z,14.15
2023-04-18T20:19:52.893Z,14.19
2023-04-18T20:22:19.796Z,14.20
2023-04-18T20:24:48.182Z,14.20
2023-04-18T20:27:15.324Z,14.17
2023-04-18T20:29:41.922Z,14.14
2023-04-18T20:32:08.553Z,14.13
2023-04-18T20:34:35.890Z,14.12
2023-04-18T20:37:02.486Z,14.12
2023-04-18T20:39:29.260Z,14.14
2023-04-18T20:41:57.806Z,14.14
2023-04-18T20:44:24.937Z,14.14
2023-04-18T20:46:53.467Z,14.13
2023-04-18T20:49:20.131Z,14.11
2023-04-18T20:51:46.792Z,14.10
2023-04-18T20:54:13.678Z,14.10
2023-04-18T20:56:40.656Z,14.09
2023-04-18T20:59:07.269Z,14.10
2023-04-18T21:01:35.536Z,14.07
2023-04-18T21:04:03.737Z,14.05
2023-04-18T21:06:31.008Z,14.04
2023-04-18T21:08:57.581Z,13.99
2023-04-18T21:11:24.169Z,13.92
2023-04-18T21:13:50.918Z,13.91
2023-04-18T21:16:17.582Z,13.88
2023-04-18T21:18:44.288Z,13.85
2023-04-18T21:21:11.934Z,13.79
2023-04-18T21:23:47.358Z,13.77
2023-04-18T21:26:14.025Z,13.77
2023-04-18T21:29:00.759Z,13.71
2023-04-18T21:31:29.814Z,13.70
2023-04-18T21:33:57.448Z,13.72
2023-04-18T21:36:26.989Z,13.71
2023-04-18T21:38:55.105Z,13.72
2023-04-18T21:41:22.944Z,13.73
2023-04-18T21:43:50.270Z,13.72
2023-04-18T21:46:17.565Z,13.70
2023-04-18T21:48:46.391Z,13.65
2023-04-18T21:51:15.068Z,13.60
2023-04-18T21:53:42.588Z,13.60
2023-04-18T21:56:09.475Z,13.59
2023-04-18T21:58:36.107Z,13.54
2023-04-18T22:01:03.203Z,13.54
2023-04-18T22:03:30.197Z,13.52
2023-04-18T22:05:57.504Z,13.49
2023-04-18T22:08:28.312Z,13.45
2023-04-18T22:10:56.335Z,13.43
2023-04-18T22:13:23.551Z,13.40
2023-04-18T22:15:51.507Z,13.38
2023-04-18T22:18:19.012Z,13.41
2023-04-18T22:20:47.014Z,13.41
2023-04-18T22:23:14.164Z,13.39
2023-04-18T22:25:41.008Z,13.40
2023-04-18T22:28:07.855Z,13.36
2023-04-18T22:30:34.690Z,13.36
2023-04-18T22:33:01.485Z,13.36
2023-04-18T22:35:28.222Z,13.36
2023-04-18T22:37:55.848Z,13.35
2023-04-18T22:40:22.549Z,13.34
2023-04-18T22:42:51.823Z,13.31
2023-04-18T22:45:19.212Z,13.32
2023-04-18T22:47:46.768Z,13.29
2023-04-18T22:50:14.234Z,13.32
2023-04-18T22:52:41.259Z,13.31
2023-04-18T22:55:08.702Z,13.32
2023-04-18T22:57:35.493Z,13.32
2023-04-18T23:00:02.414Z,13.34
2023-04-18T23:02:29.158Z,13.32
2023-04-18T23:04:59.007Z,13.33
2023-04-18T23:07:25.736Z,13.32
2023-04-18T23:09:52.336Z,13.28
2023-04-18T23:12:18.960Z,13.27
2023-04-18T23:14:45.610Z,13.25
2023-04-18T23:17:12.124Z,13.25
2023-04-18T23:19:38.876Z,13.26
2023-04-18T23:22:05.539Z,13.29
2023-04-18T23:24:32.360Z,13.33
2023-04-18T23:26:58.920Z,13.32
2023-04-18T23:29:25.527Z,13.29
2023-04-18T23:31:52.119Z,13.29
2023-04-18T23:34:18.786Z,13.27
2023-04-18T23:36:45.750Z,13.26
2023-04-18T23:39:12.394Z,13.27
2023-04-18T23:41:39.019Z,13.28
2023-04-18T23:44:05.767Z,13.25
2023-04-18T23:46:32.971Z,13.25
2023-04-18T23:49:00.931Z,13.23
2023-04-18T23:51:28.018Z,13.24
2023-04-18T23:53:54.736Z,13.23
2023-04-18T23:56:23.127Z,13.22
2023-04-18T23:58:49.732Z,13.22
